createdAt,value
2023-03-02T00:01:08.548Z,68.52
2023-03-02T00:03:42.332Z,68.43
2023-03-02T00:06:14.961Z,68.56
2023-03-02T00:08:47.979Z,68.59
2023-03-02T00:11:21.877Z,68.70
2023-03-02T00:13:54.167Z,68.64
2023-03-02T00:16:26.721Z,68.57
2023-03-02T00:18:58.977Z,68.47
2023-03-02T00:21:32.103Z,68.82
2023-03-02T00:24:06.003Z,68.83
2023-03-02T00:26:39.001Z,68.64
2023-03-02T00:29:11.582Z,68.78
2023-03-02T00:31:44.098Z,68.70
2023-03-02T00:34:17.084Z,68.85
2023-03-02T00:36:50.328Z,68.68
2023-03-02T00:39:22.638Z,68.87
2023-03-02T00:41:55.149Z,68.86
2023-03-02T00:44:27.403Z,69.16
2023-03-02T00:46:59.817Z,69.01
2023-03-02T00:49:33.064Z,68.94
2023-03-02T00:52:07.224Z,68.66
2023-03-02T00:54:39.517Z,69.04
2023-03-02T00:57:11.925Z,68.90
2023-03-02T00:59:44.237Z,68.88
2023-03-02T01:02:26.260Z,69.24
2023-03-02T01:04:59.943Z,68.99
2023-03-02T01:07:35.313Z,69.28
2023-03-02T01:10:10.736Z,69.08
2023-03-02T01:12:43.835Z,69.05
2023-03-02T01:15:16.580Z,69.27
2023-03-02T01:17:48.883Z,69.28
2023-03-02T01:20:21.622Z,69.35
2023-03-02T01:22:56.748Z,69.14
2023-03-02T01:25:29.121Z,69.06
2023-03-02T01:28:04.097Z,69.44
2023-03-02T01:30:37.258Z,69.48
2023-03-02T01:33:09.745Z,69.70
2023-03-02T01:35:43.234Z,69.19
2023-03-02T01:38:16.741Z,69.26
2023-03-02T01:40:49.608Z,69.21
2023-03-02T01:43:21.971Z,69.37
2023-03-02T01:45:57.601Z,69.23
2023-03-02T01:48:53.541Z,69.48
2023-03-02T01:51:39.595Z,69.57
2023-03-02T01:54:17.442Z,69.75
2023-03-02T01:56:51.500Z,69.54
2023-03-02T01:59:25.716Z,69.58
2023-03-02T02:02:02.262Z,69.51
2023-03-02T02:04:37.693Z,69.39
2023-03-02T02:07:11.411Z,69.36
2023-03-02T02:09:49.384Z,69.64
2023-03-02T02:12:23.772Z,69.75
2023-03-02T02:15:01.115Z,69.83
2023-03-02T02:17:38.560Z,69.82
2023-03-02T02:20:21.613Z,70.28
2023-03-02T02:23:06.423Z,70.12
2023-03-02T02:25:46.353Z,70.32
2023-03-02T02:28:24.607Z,70.85
2023-03-02T02:31:14.238Z,70.97
2023-03-02T02:33:53.093Z,70.95
2023-03-02T02:36:34.178Z,71.02
2023-03-02T02:39:16.626Z,71.05
2023-03-02T02:41:52.430Z,71.18
2023-03-02T02:44:25.306Z,71.18
2023-03-02T02:46:58.057Z,71.30
2023-03-02T02:49:38.222Z,71.10
2023-03-02T02:52:13.575Z,71.28
2023-03-02T02:54:49.438Z,71.34
2023-03-02T02:57:25.364Z,71.41
2023-03-02T03:00:03.081Z,71.05
2023-03-02T03:02:45.820Z,71.20
2023-03-02T03:05:18.480Z,71.28
2023-03-02T03:07:51.113Z,71.22
2023-03-02T03:10:30.486Z,71.02
2023-03-02T03:13:03.992Z,71.03
2023-03-02T03:15:36.283Z,70.85
2023-03-02T03:18:10.684Z,71.21
2023-03-02T03:20:45.659Z,71.29
2023-03-02T03:23:18.343Z,71.12
2023-03-02T03:25:51.125Z,71.13
2023-03-02T03:28:23.451Z,71.10
2023-03-02T03:30:56.517Z,71.30
2023-03-02T03:33:29.133Z,71.82
2023-03-02T03:36:02.532Z,71.76
2023-03-02T03:38:36.015Z,71.42
2023-03-02T03:41:08.599Z,71.79
2023-03-02T03:43:40.874Z,71.60
2023-03-02T03:46:13.376Z,71.49
2023-03-02T03:48:45.746Z,71.94
2023-03-02T03:51:18.893Z,71.85
2023-03-02T03:54:00.156Z,72.11
2023-03-02T03:56:35.832Z,71.26
2023-03-02T03:59:12.562Z,72.19
2023-03-02T04:01:51.292Z,71.45
2023-03-02T04:04:22.881Z,71.56
2023-03-02T04:06:56.808Z,71.67
2023-03-02T04:09:32.471Z,71.63
2023-03-02T04:12:05.498Z,71.74
2023-03-02T04:14:38.627Z,71.57
2023-03-02T04:17:11.136Z,71.78
2023-03-02T04:19:47.332Z,72.23
2023-03-02T04:22:20.374Z,72.00
2023-03-02T04:24:53.342Z,71.99
2023-03-02T04:27:25.778Z,71.73
2023-03-02T04:29:58.111Z,71.69
2023-03-02T04:32:34.473Z,71.83
2023-03-02T04:35:09.011Z,72.26
2023-03-02T04:37:42.720Z,71.71
2023-03-02T04:40:17.694Z,72.01
2023-03-02T04:42:52.468Z,72.30
2023-03-02T04:45:25.078Z,72.55
2023-03-02T04:47:59.907Z,71.96
2023-03-02T04:50:32.271Z,72.46
2023-03-02T04:53:08.261Z,71.88
2023-03-02T04:55:41.873Z,72.67
2023-03-02T04:58:14.838Z,71.95
2023-03-02T05:00:47.654Z,71.86
2023-03-02T05:03:20.199Z,72.00
2023-03-02T05:05:52.977Z,72.77
2023-03-02T05:08:25.644Z,71.96
2023-03-02T05:10:58.445Z,72.09
2023-03-02T05:13:31.307Z,72.31
2023-03-02T05:16:05.538Z,72.85
2023-03-02T05:18:37.859Z,72.56
2023-03-02T05:21:10.598Z,72.36
2023-03-02T05:23:43.802Z,72.83
2023-03-02T05:26:17.038Z,72.88
2023-03-02T05:28:50.346Z,72.95
2023-03-02T05:31:27.509Z,73.08
2023-03-02T05:34:00.050Z,72.90
2023-03-02T05:36:34.052Z,72.86
2023-03-02T05:39:08.160Z,72.63
2023-03-02T05:41:41.948Z,72.50
2023-03-02T05:44:14.348Z,72.45
2023-03-02T05:46:47.251Z,73.08
2023-03-02T05:49:19.640Z,72.31
2023-03-02T05:51:52.486Z,73.17
2023-03-02T05:54:24.756Z,72.81
2023-03-02T05:56:57.316Z,72.35
2023-03-02T05:59:29.712Z,72.44
2023-03-02T06:02:02.615Z,73.00
2023-03-02T06:04:35.043Z,73.19
2023-03-02T06:07:08.482Z,72.71
2023-03-02T06:09:42.537Z,73.39
2023-03-02T06:12:15.913Z,73.45
2023-03-02T06:14:48.238Z,73.42
2023-03-02T06:17:21.251Z,72.72
2023-03-02T06:19:55.884Z,72.53
2023-03-02T06:22:29.830Z,72.65
2023-03-02T06:25:04.452Z,73.29
2023-03-02T06:27:38.036Z,73.45
2023-03-02T06:30:14.533Z,73.15
2023-03-02T06:32:46.996Z,72.87
2023-03-02T06:35:19.921Z,73.06
2023-03-02T06:37:52.836Z,72.71
2023-03-02T06:40:25.216Z,73.23
2023-03-02T06:43:01.313Z,73.20
2023-03-02T06:45:39.118Z,72.81
2023-03-02T06:48:11.692Z,73.19
2023-03-02T06:50:45.947Z,72.86
2023-03-02T06:53:18.614Z,73.46
2023-03-02T06:55:51.645Z,73.18
2023-03-02T06:58:24.323Z,73.37
2023-03-02T07:00:56.655Z,73.05
2023-03-02T07:03:29.030Z,73.62
2023-03-02T07:06:01.359Z,73.92
2023-03-02T07:08:34.844Z,72.72
2023-03-02T07:11:11.935Z,73.62
2023-03-02T07:13:44.359Z,73.59
2023-03-02T07:16:17.759Z,73.26
2023-03-02T07:18:50.141Z,73.68
2023-03-02T07:21:22.489Z,72.81
2023-03-02T07:23:54.918Z,72.76
2023-03-02T07:26:28.092Z,72.87
2023-03-02T07:29:01.265Z,73.17
2023-03-02T07:31:37.229Z,72.95
2023-03-02T07:34:09.524Z,73.76
2023-03-02T07:36:41.750Z,73.49
2023-03-02T07:39:14.343Z,73.23
2023-03-02T07:41:46.908Z,73.78
2023-03-02T07:44:19.449Z,73.85
2023-03-02T07:46:51.916Z,73.27
2023-03-02T07:49:24.742Z,73.42
2023-03-02T07:51:57.019Z,73.85
2023-03-02T07:54:30.879Z,74.12
2023-03-02T07:57:03.979Z,74.09
2023-03-02T07:59:36.496Z,73.37
2023-03-02T08:02:10.710Z,73.14
2023-03-02T08:04:43.728Z,73.55
2023-03-02T08:07:16.222Z,74.01
2023-03-02T08:09:48.902Z,73.31
2023-03-02T08:12:21.388Z,74.05
2023-03-02T08:14:54.144Z,73.60
2023-03-02T08:17:26.596Z,74.26
2023-03-02T08:19:59.278Z,73.85
2023-03-02T08:22:32.461Z,73.79
2023-03-02T08:25:09.069Z,73.74
2023-03-02T08:27:41.556Z,73.53
2023-03-02T08:30:16.411Z,74.24
2023-03-02T08:32:48.849Z,73.61
2023-03-02T08:35:22.602Z,74.39
2023-03-02T08:37:55.400Z,73.40
2023-03-02T08:40:28.056Z,73.85
2023-03-02T08:43:00.345Z,74.19
2023-03-02T08:45:36.091Z,74.42
2023-03-02T08:48:09.845Z,73.68
2023-03-02T08:50:43.984Z,73.47
2023-03-02T08:53:16.553Z,74.23
2023-03-02T08:55:49.146Z,73.76
2023-03-02T08:58:21.903Z,74.35
2023-03-02T09:00:54.680Z,74.37
2023-03-02T09:03:27.090Z,73.16
2023-03-02T09:05:59.771Z,74.11
2023-03-02T09:08:32.090Z,74.32
2023-03-02T09:11:06.536Z,73.96
2023-03-02T09:13:37.521Z,74.44
2023-03-02T09:16:12.580Z,73.70
2023-03-02T09:18:45.128Z,73.10
2023-03-02T09:21:17.563Z,73.55
2023-03-02T09:23:53.904Z,73.96
2023-03-02T09:26:27.287Z,73.29
2023-03-02T09:29:00.908Z,73.83
2023-03-02T09:31:38.869Z,73.71
2023-03-02T09:34:11.478Z,74.40
2023-03-02T09:36:44.077Z,73.92
2023-03-02T09:39:16.384Z,73.40
2023-03-02T09:42:17.851Z,73.46
2023-03-02T09:45:35.373Z,73.64
2023-03-02T09:48:18.723Z,73.67
2023-03-02T09:51:01.246Z,73.31
2023-03-02T09:53:44.299Z,73.97
2023-03-02T09:56:20.226Z,72.99
2023-03-02T09:59:00.535Z,73.30
2023-03-02T10:01:44.130Z,74.00
2023-03-02T10:04:29.138Z,73.05
2023-03-02T10:07:12.807Z,73.05
2023-03-02T10:09:45.689Z,74.09
2023-03-02T10:12:38.042Z,74.24
2023-03-02T10:15:15.946Z,73.20
2023-03-02T10:18:00.859Z,73.82
2023-03-02T10:20:47.555Z,74.24
2023-03-02T10:23:34.206Z,73.77
2023-03-02T10:26:16.077Z,73.24
2023-03-02T10:28:52.217Z,72.69
2023-03-02T10:31:30.758Z,72.33
2023-03-02T10:34:04.605Z,73.17
2023-03-02T10:36:41.625Z,72.78
2023-03-02T10:39:17.293Z,73.15
2023-03-02T10:41:54.501Z,72.31
2023-03-02T10:44:29.611Z,72.46
2023-03-02T10:47:01.904Z,72.50
2023-03-02T10:49:39.493Z,72.98
2023-03-02T10:52:17.326Z,72.83
2023-03-02T10:54:50.142Z,72.90
2023-03-02T10:57:36.648Z,72.65
2023-03-02T11:00:19.368Z,72.12
2023-03-02T11:02:57.743Z,72.69
2023-03-02T11:05:35.557Z,72.67
2023-03-02T11:08:12.532Z,71.73
2023-03-02T11:10:57.012Z,71.72
2023-03-02T11:13:35.582Z,72.00
2023-03-02T11:16:29.242Z,71.98
2023-03-02T11:19:06.706Z,71.68
2023-03-02T11:21:43.065Z,71.62
2023-03-02T11:24:20.012Z,72.13
2023-03-02T11:26:55.117Z,71.39
2023-03-02T11:29:43.292Z,71.83
2023-03-02T11:32:21.543Z,71.35
2023-03-02T11:34:58.002Z,71.65
2023-03-02T11:37:41.176Z,71.37
2023-03-02T11:40:23.963Z,71.46
2023-03-02T11:42:59.912Z,71.23
2023-03-02T11:45:35.064Z,70.65
2023-03-02T11:48:16.334Z,71.02
2023-03-02T11:50:57.718Z,70.53
2023-03-02T11:53:35.100Z,70.71
2023-03-02T11:56:08.459Z,70.93
2023-03-02T11:58:43.733Z,70.86
2023-03-02T12:01:23.627Z,71.13
2023-03-02T12:04:07.609Z,70.56
2023-03-02T12:06:44.383Z,70.34
2023-03-02T12:09:39.595Z,70.32
2023-03-02T12:12:35.358Z,70.29
2023-03-02T12:15:30.878Z,70.91
2023-03-02T12:18:03.630Z,70.60
2023-03-02T12:20:35.928Z,70.31
2023-03-02T12:23:25.298Z,70.27
2023-03-02T12:26:09.052Z,69.95
2023-03-02T12:28:42.568Z,70.48
2023-03-02T12:31:16.542Z,69.76
2023-03-02T12:33:52.447Z,69.86
2023-03-02T12:36:33.598Z,70.16
2023-03-02T12:39:27.535Z,69.25
2023-03-02T12:42:31.831Z,69.50
2023-03-02T12:45:16.912Z,69.50
2023-03-02T12:47:54.207Z,69.36
2023-03-02T12:50:31.358Z,69.15
2023-03-02T12:53:06.435Z,68.92
2023-03-02T12:55:41.292Z,69.60
2023-03-02T12:58:20.407Z,69.11
2023-03-02T13:00:58.126Z,69.00
2023-03-02T13:03:32.651Z,68.71
2023-03-02T13:06:13.337Z,68.72
2023-03-02T13:08:49.128Z,68.99
2023-03-02T13:11:29.091Z,69.15
2023-03-02T13:14:05.139Z,68.77
2023-03-02T13:16:38.240Z,68.78
2023-03-02T13:19:16.706Z,68.33
2023-03-02T13:21:49.403Z,68.35
2023-03-02T13:24:46.913Z,69.07
2023-03-02T13:27:21.691Z,68.78
2023-03-02T13:29:55.794Z,68.32
2023-03-02T13:32:35.990Z,69.25
2023-03-02T13:35:20.667Z,68.70
2023-03-02T13:38:01.762Z,69.04
2023-03-02T13:40:42.911Z,69.12
2023-03-02T13:43:37.840Z,68.97
2023-03-02T13:46:29.089Z,69.09
2023-03-02T13:49:10.677Z,69.14
2023-03-02T13:51:46.778Z,68.79
2023-03-02T13:54:25.315Z,69.33
2023-03-02T13:57:00.525Z,68.74
2023-03-02T13:59:36.716Z,68.53
2023-03-02T14:02:23.779Z,69.50
2023-03-02T14:04:56.917Z,69.37
2023-03-02T14:07:29.397Z,68.65
2023-03-02T14:10:02.756Z,69.37
2023-03-02T14:12:36.115Z,68.59
2023-03-02T14:15:17.171Z,69.33
2023-03-02T14:17:50.512Z,69.12
2023-03-02T14:20:23.326Z,69.48
2023-03-02T14:22:55.627Z,69.07
2023-03-02T14:25:28.845Z,69.56
2023-03-02T14:28:01.205Z,69.14
2023-03-02T14:30:36.103Z,69.69
2023-03-02T14:33:16.972Z,69.66
2023-03-02T14:35:50.181Z,69.29
2023-03-02T14:38:24.801Z,69.43
2023-03-02T14:40:57.700Z,69.18
2023-03-02T14:43:30.858Z,69.00
2023-03-02T14:46:03.830Z,69.46
2023-03-02T14:48:36.819Z,69.84
2023-03-02T14:51:23.214Z,69.24
2023-03-02T14:53:59.376Z,69.09
2023-03-02T14:56:33.474Z,70.10
2023-03-02T14:59:07.075Z,69.31
2023-03-02T15:01:40.263Z,69.68
2023-03-02T15:04:13.322Z,70.05
2023-03-02T15:06:47.480Z,69.69
2023-03-02T15:09:20.129Z,69.53
2023-03-02T15:11:52.626Z,69.75
2023-03-02T15:14:24.959Z,69.91
2023-03-02T15:16:57.636Z,69.06
2023-03-02T15:19:29.919Z,69.32
2023-03-02T15:22:02.429Z,69.94
2023-03-02T15:24:36.249Z,69.51
2023-03-02T15:27:09.696Z,69.52
2023-03-02T15:29:46.456Z,69.12
2023-03-02T15:32:19.184Z,69.13
2023-03-02T15:34:51.580Z,69.04
2023-03-02T15:37:23.896Z,69.00
2023-03-02T15:40:02.033Z,68.90
2023-03-02T15:42:36.582Z,69.83
2023-03-02T15:45:11.616Z,69.94
2023-03-02T15:47:44.240Z,70.04
2023-03-02T15:50:16.816Z,69.53
2023-03-02T15:52:49.671Z,69.38
2023-03-02T15:55:22.115Z,69.23
2023-03-02T15:57:58.306Z,69.18
2023-03-02T16:00:30.727Z,69.88
2023-03-02T16:03:03.227Z,68.82
2023-03-02T16:05:36.088Z,68.97
2023-03-02T16:08:12.622Z,69.88
2023-03-02T16:10:45.247Z,69.23
2023-03-02T16:13:17.963Z,69.18
2023-03-02T16:15:50.578Z,69.65
2023-03-02T16:18:24.349Z,68.81
2023-03-02T16:20:58.117Z,68.69
2023-03-02T16:23:31.548Z,69.39
2023-03-02T16:26:13.448Z,68.69
2023-03-02T16:28:49.173Z,68.52
2023-03-02T16:31:29.357Z,68.82
2023-03-02T16:34:07.660Z,69.42
2023-03-02T16:36:42.312Z,69.28
2023-03-02T16:39:13.781Z,69.24
2023-03-02T16:41:47.550Z,68.47
2023-03-02T16:44:20.729Z,68.91
2023-03-02T16:46:56.952Z,68.46
2023-03-02T16:49:33.786Z,68.56
2023-03-02T16:52:07.780Z,68.35
2023-03-02T16:54:40.416Z,69.12
2023-03-02T16:57:13.233Z,69.28
2023-03-02T16:59:45.630Z,68.47
2023-03-02T17:02:19.209Z,68.06
2023-03-02T17:04:51.896Z,68.06
2023-03-02T17:07:24.566Z,68.73
2023-03-02T17:09:59.117Z,69.05
2023-03-02T17:12:42.841Z,68.58
2023-03-02T17:15:18.102Z,69.05
2023-03-02T17:17:50.686Z,68.42
2023-03-02T17:20:23.375Z,68.89
2023-03-02T17:22:56.519Z,69.01
2023-03-02T17:25:29.504Z,68.99
2023-03-02T17:28:05.024Z,68.89
2023-03-02T17:30:38.163Z,69.35
2023-03-02T17:33:10.847Z,69.19
2023-03-02T17:35:46.394Z,69.24
2023-03-02T17:38:19.651Z,69.06
2023-03-02T17:40:51.899Z,69.35
2023-03-02T17:43:24.665Z,69.07
2023-03-02T17:45:58.098Z,69.25
2023-03-02T17:48:30.706Z,69.26
2023-03-02T17:51:03.212Z,69.58
2023-03-02T17:53:37.095Z,69.21
2023-03-02T17:56:11.814Z,69.44
2023-03-02T17:58:45.542Z,69.18
2023-03-02T18:01:17.991Z,68.92
2023-03-02T18:03:50.495Z,69.00
2023-03-02T18:06:23.117Z,68.80
2023-03-02T18:08:55.922Z,69.45
2023-03-02T18:11:30.496Z,69.02
2023-03-02T18:14:03.384Z,69.39
2023-03-02T18:16:52.308Z,69.71
2023-03-02T18:19:25.052Z,69.37
2023-03-02T18:21:57.657Z,69.75
2023-03-02T18:24:33.808Z,69.71
2023-03-02T18:27:11.366Z,69.74
2023-03-02T18:29:44.117Z,69.60
2023-03-02T18:32:17.710Z,69.75
2023-03-02T18:34:50.333Z,69.82
2023-03-02T18:37:22.972Z,69.93
2023-03-02T18:39:55.888Z,69.67
2023-03-02T18:42:33.949Z,69.92
2023-03-02T18:45:19.134Z,69.56
2023-03-02T18:47:51.713Z,69.85
2023-03-02T18:50:25.266Z,69.78
2023-03-02T18:52:58.386Z,70.31
2023-03-02T18:55:31.260Z,69.94
2023-03-02T18:58:03.906Z,69.82
2023-03-02T19:00:39.966Z,69.97
2023-03-02T19:03:12.974Z,69.80
2023-03-02T19:05:49.497Z,69.72
2023-03-02T19:08:23.622Z,70.06
2023-03-02T19:10:57.230Z,70.00
2023-03-02T19:13:33.477Z,70.35
2023-03-02T19:16:09.449Z,70.20
2023-03-02T19:18:42.300Z,70.28
2023-03-02T19:21:15.073Z,70.36
2023-03-02T19:23:47.937Z,70.36
2023-03-02T19:26:21.462Z,70.28
2023-03-02T19:28:55.367Z,70.53
2023-03-02T19:31:31.939Z,70.42
2023-03-02T19:34:10.369Z,70.36
2023-03-02T19:36:47.919Z,70.17
2023-03-02T19:39:22.281Z,70.33
2023-03-02T19:42:02.366Z,70.29
2023-03-02T19:44:43.382Z,70.50
2023-03-02T19:47:19.493Z,70.37
2023-03-02T19:49:57.108Z,70.46
2023-03-02T19:52:42.414Z,70.53
2023-03-02T19:55:20.884Z,70.56
2023-03-02T19:58:05.611Z,70.68
2023-03-02T20:00:43.232Z,70.53
2023-03-02T20:03:22.237Z,70.59
2023-03-02T20:06:07.778Z,70.53
2023-03-02T20:08:52.103Z,70.60
2023-03-02T20:11:27.051Z,70.70
2023-03-02T20:14:03.220Z,70.69
2023-03-02T20:16:45.115Z,70.84
2023-03-02T20:19:22.799Z,70.70
2023-03-02T20:21:58.400Z,70.69
2023-03-02T20:24:51.403Z,70.99
2023-03-02T20:27:27.451Z,70.78
2023-03-02T20:30:18.023Z,71.10
2023-03-02T20:32:52.603Z,70.99
2023-03-02T20:35:31.698Z,70.92
2023-03-02T20:38:16.346Z,70.77
2023-03-02T20:40:58.806Z,71.09
2023-03-02T20:43:35.308Z,71.11
2023-03-02T20:46:22.190Z,71.14
2023-03-02T20:49:09.669Z,70.97
2023-03-02T20:51:49.425Z,71.26
2023-03-02T20:54:27.869Z,71.22
2023-03-02T20:57:09.069Z,71.30
2023-03-02T20:59:46.098Z,71.29
2023-03-02T21:02:28.367Z,71.31
2023-03-02T21:05:05.512Z,71.39
2023-03-02T21:07:44.383Z,71.22
2023-03-02T21:10:21.756Z,71.06
2023-03-02T21:12:55.310Z,71.30
2023-03-02T21:15:29.456Z,71.56
2023-03-02T21:18:02.156Z,71.13
2023-03-02T21:23:17.278Z,71.33
2023-03-02T21:25:50.177Z,71.20
2023-03-02T21:28:22.937Z,71.55
2023-03-02T21:30:55.362Z,71.75
2023-03-02T21:33:29.052Z,71.98
2023-03-02T21:36:01.671Z,71.68
2023-03-02T21:38:36.652Z,71.64
2023-03-02T21:41:14.826Z,71.76
2023-03-02T21:43:48.644Z,71.73
2023-03-02T21:46:24.167Z,71.60
2023-03-02T21:48:58.332Z,71.53
2023-03-02T21:51:34.010Z,71.63
2023-03-02T21:54:10.547Z,71.63
2023-03-02T21:56:46.136Z,71.58
2023-03-02T21:59:18.919Z,71.52
2023-03-02T22:01:51.654Z,71.76
2023-03-02T22:04:24.787Z,71.86
2023-03-02T22:06:57.433Z,71.93
2023-03-02T22:09:30.173Z,71.83
2023-03-02T22:12:02.964Z,71.83
2023-03-02T22:14:36.591Z,71.79
2023-03-02T22:17:20.476Z,71.72
2023-03-02T22:19:54.509Z,72.18
2023-03-02T22:22:30.577Z,71.81
2023-03-02T22:25:16.202Z,71.82
2023-03-02T22:27:50.403Z,71.86
2023-03-02T22:30:27.104Z,71.95
2023-03-02T22:33:01.194Z,72.02
2023-03-02T22:35:34.305Z,71.84
2023-03-02T22:38:15.146Z,71.91
2023-03-02T22:40:49.579Z,72.07
2023-03-02T22:43:29.623Z,71.96
2023-03-02T22:46:16.812Z,71.75
2023-03-02T22:48:51.359Z,71.83
2023-03-02T22:51:25.947Z,71.93
2023-03-02T22:54:01.857Z,72.04
2023-03-02T22:56:39.083Z,72.14
2023-03-02T22:59:21.758Z,72.00
2023-03-02T23:01:55.801Z,72.13
2023-03-02T23:04:38.166Z,72.11
2023-03-02T23:07:21.480Z,72.27
2023-03-02T23:09:53.979Z,72.05
2023-03-02T23:12:29.115Z,72.12
2023-03-02T23:15:03.115Z,72.14
2023-03-02T23:17:39.940Z,72.11
2023-03-02T23:20:17.132Z,72.38
2023-03-02T23:22:52.147Z,72.36
2023-03-02T23:25:25.074Z,72.30
2023-03-02T23:27:57.692Z,72.26
2023-03-02T23:30:30.364Z,72.34
2023-03-02T23:33:02.845Z,72.41
2023-03-02T23:35:38.079Z,72.30
2023-03-02T23:38:13.488Z,72.37
2023-03-02T23:40:49.329Z,72.18
2023-03-02T23:43:24.433Z,72.52
2023-03-02T23:45:57.489Z,72.18
2023-03-02T23:48:30.154Z,72.29
2023-03-02T23:51:02.990Z,72.46
2023-03-02T23:53:38.038Z,72.58
2023-03-02T23:56:14.326Z,72.41
2023-03-02T23:58:50.536Z,72.51
